Time;durP1;ratioP1;P1;durP2;ratioP2;P2;SDS_P1;SDS_P2;PMS_P1;PMS_P2;Temp;Humidity;BMP_temperature;BMP_pressure;BME280_temperature;BME280_humidity;BME280_pressure;Samples;Min_cycle;Max_cycle;Signal;HPM_P1;HPM_P2
2022/10/02 00:00:03;;;;;;;29.40;6.85;;;9.70;99.90;;;;;;5047278;28;20059;-40
2022/10/02 00:03:12;;;;;;;23.30;4.72;;;9.60;99.90;;;;;;5047583;28;20049;-41
2022/10/02 00:05:44;;;;;;;21.88;5.32;;;9.20;99.90;;;;;;5026815;28;20053;-40
2022/10/02 00:08:44;;;;;;;31.30;6.90;;;9.90;99.90;;;;;;5047152;28;20040;-41
2022/10/02 00:11:23;;;;;;;21.67;5.88;;;10.20;99.90;;;;;;5013088;28;20482;-41
2022/10/02 00:13:55;;;;;;;26.92;5.40;;;9.60;99.90;;;;;;5046947;28;20137;-41
2022/10/02 00:16:39;;;;;;;21.35;4.88;;;9.10;99.90;;;;;;5047515;28;20206;-41
2022/10/02 00:19:05;;;;;;;17.27;5.13;;;9.70;99.90;;;;;;5047156;28;20567;-40
2022/10/02 00:21:43;;;;;;;30.70;5.90;;;9.80;99.90;;;;;;5047272;28;20174;-41
2022/10/02 00:24:15;;;;;;;32.55;6.45;;;9.60;99.90;;;;;;5047108;28;20052;-41
2022/10/02 00:27:02;;;;;;;26.17;5.47;;;9.10;99.90;;;;;;5047237;28;20045;-41
2022/10/02 00:29:43;;;;;;;19.95;5.50;;;9.60;99.90;;;;;;5047149;28;20418;-41
2022/10/02 00:32:22;;;;;;;23.38;5.28;;;9.00;99.90;;;;;;5044903;28;20376;-41
2022/10/02 00:35:12;;;;;;;21.08;4.97;;;9.20;99.90;;;;;;5046082;28;20076;-41
2022/10/02 00:37:49;;;;;;;32.63;7.00;;;8.80;99.90;;;;;;5046779;28;20501;-40
2022/10/02 00:40:37;;;;;;;18.92;5.07;;;9.70;99.90;;;;;;5046770;28;20056;-41
2022/10/02 00:43:20;;;;;;;19.65;5.38;;;8.90;99.90;;;;;;5046047;28;20102;-40
2022/10/02 00:46:24;;;;;;;15.93;4.65;;;8.90;99.90;;;;;;5046136;28;20470;-40
2022/10/02 00:48:58;;;;;;;33.53;6.70;;;8.90;99.90;;;;;;5046243;28;20411;-40
2022/10/02 00:51:44;;;;;;;32.70;7.22;;;8.90;99.90;;;;;;5046332;28;20051;-40
2022/10/02 00:54:24;;;;;;;20.80;5.50;;;8.90;99.90;;;;;;5046382;28;20454;-42
2022/10/02 00:57:19;;;;;;;30.23;6.47;;;8.90;99.90;;;;;;5046311;28;20098;-40
2022/10/02 01:00:04;;;;;;;27.60;6.45;;;8.90;99.90;;;;;;5045577;28;20569;-41
2022/10/02 01:02:30;;;;;;;21.88;5.05;;;8.80;99.90;;;;;;5046487;28;20060;-40
2022/10/02 01:04:59;;;;;;;26.38;6.20;;;8.70;99.90;;;;;;5045692;28;20407;-40
2022/10/02 01:07:25;;;;;;;26.58;6.50;;;8.90;99.90;;;;;;5046296;28;20048;-40
2022/10/02 01:09:52;;;;;;;18.77;4.90;;;8.70;99.90;;;;;;5045615;28;20384;-41
2022/10/02 01:12:18;;;;;;;22.60;4.88;;;8.90;99.90;;;;;;5045696;28;20052;-41
2022/10/02 01:14:44;;;;;;;23.67;5.15;;;9.40;99.90;;;;;;5045376;28;20061;-40
2022/10/02 01:17:21;;;;;;;24.63;5.05;;;9.50;99.90;;;;;;5046093;28;20057;-39
2022/10/02 01:19:47;;;;;;;18.45;5.30;;;8.80;99.90;;;;;;5046099;28;20116;-40
2022/10/02 01:22:33;;;;;;;7.38;2.47;;;9.00;99.90;;;;;;5045731;28;20045;-40
2022/10/02 01:25:00;;;;;;;21.77;4.93;;;8.80;99.90;;;;;;5046039;28;20041;-40
2022/10/02 01:27:26;;;;;;;19.65;5.13;;;8.80;99.90;;;;;;5044288;28;20057;-40
2022/10/02 01:30:00;;;;;;;22.95;4.28;;;9.00;99.90;;;;;;5045667;28;20040;-39
2022/10/02 01:32:28;;;;;;;20.35;4.18;;;8.90;99.90;;;;;;5046330;28;20060;-40
2022/10/02 01:34:55;;;;;;;25.48;4.68;;;9.60;99.90;;;;;;5044071;28;20044;-40
2022/10/02 01:37:24;;;;;;;22.35;4.50;;;8.90;99.90;;;;;;5045877;28;20059;-39
2022/10/02 01:39:51;;;;;;;24.65;5.55;;;9.00;99.90;;;;;;5045480;28;20049;-40
2022/10/02 01:42:19;;;;;;;20.35;4.50;;;9.60;99.90;;;;;;5045643;28;20182;-40
2022/10/02 01:44:46;;;;;;;29.70;5.18;;;9.00;99.90;;;;;;5045626;28;20049;-40
2022/10/02 01:47:21;;;;;;;17.75;3.60;;;9.60;99.90;;;;;;5045353;28;20566;-41
2022/10/02 01:50:10;;;;;;;22.10;4.13;;;9.50;99.90;;;;;;5045369;28;20502;-40
2022/10/02 01:52:54;;;;;;;16.83;4.10;;;8.90;99.90;;;;;;5045660;28;20442;-40
2022/10/02 01:55:41;;;;;;;24.95;4.90;;;9.00;99.90;;;;;;5045446;28;20099;-40
2022/10/02 01:58:31;;;;;;;19.67;4.50;;;9.10;99.90;;;;;;5045498;28;20147;-40
2022/10/02 02:01:29;;;;;;;15.18;2.90;;;9.20;99.90;;;;;;5045646;28;20099;-40
2022/10/02 02:04:16;;;;;;;20.77;3.70;;;9.20;99.90;;;;;;5029631;28;20187;-40
2022/10/02 02:07:09;;;;;;;22.88;3.40;;;9.20;99.90;;;;;;5046000;28;20052;-40
2022/10/02 02:09:49;;;;;;;;;;;9.20;99.90;;;;;;5046546;28;20047;-40
2022/10/02 02:12:40;;;;;;;20.65;4.20;;;9.50;99.90;;;;;;5049331;28;19943;-41
2022/10/02 02:15:12;;;;;;;19.95;3.97;;;10.10;99.90;;;;;;5046267;28;20132;-40
2022/10/02 02:17:53;;;;;;;28.58;4.72;;;10.10;99.90;;;;;;5049531;28;20052;-40
2022/10/02 02:20:31;;;;;;;25.67;4.25;;;10.20;99.90;;;;;;5049701;28;20040;-40
2022/10/02 02:23:06;;;;;;;19.20;4.72;;;9.50;99.90;;;;;;5049516;28;20049;-40
2022/10/02 02:25:37;;;;;;;13.05;4.20;;;9.20;99.90;;;;;;5049189;28;20179;-39
2022/10/02 02:28:07;;;;;;;24.10;5.35;;;9.40;99.90;;;;;;5049109;28;20436;-40
2022/10/02 02:30:37;;;;;;;22.77;4.80;;;9.60;99.90;;;;;;5049149;28;20498;-41
2022/10/02 02:33:26;;;;;;;21.98;4.97;;;9.60;99.90;;;;;;5048676;28;20491;-41
2022/10/02 02:35:58;;;;;;;19.80;5.55;;;9.50;99.90;;;;;;5049459;28;20080;-40
2022/10/02 02:38:39;;;;;;;26.30;5.50;;;9.50;99.90;;;;;;5049534;28;20048;-40
2022/10/02 02:41:11;;;;;;;34.13;5.30;;;10.50;99.90;;;;;;5049506;28;20055;-40
2022/10/02 02:43:40;;;;;;;;;;;9.80;99.90;;;;;;5049376;28;20052;-41
2022/10/02 02:46:11;;;;;;;26.85;5.80;;;10.20;99.90;;;;;;5048264;28;20286;-41
2022/10/02 02:48:53;;;;;;;30.67;5.70;;;9.50;99.90;;;;;;5048723;28;20136;-41
2022/10/02 02:51:34;;;;;;;26.13;6.17;;;9.30;99.90;;;;;;5048343;28;20041;-40
2022/10/02 02:54:06;;;;;;;20.10;6.03;;;10.10;99.90;;;;;;5048716;28;20763;-40
2022/10/02 02:56:33;;;;;;;22.15;5.15;;;9.50;99.90;;;;;;5048551;28;20087;-41
2022/10/02 02:59:11;;;;;;;36.03;6.07;;;9.90;99.90;;;;;;5048359;28;20044;-40
2022/10/02 03:01:36;;;;;;;19.30;5.22;;;9.30;99.90;;;;;;5048479;28;20045;-40
2022/10/02 03:04:02;;;;;;;24.70;5.25;;;9.60;99.90;;;;;;5048660;28;20041;-40
2022/10/02 03:06:39;;;;;;;23.98;5.18;;;9.50;99.90;;;;;;5048806;28;20127;-41
2022/10/02 03:09:10;;;;;;;29.77;5.97;;;9.50;99.90;;;;;;5048892;28;20037;-41
2022/10/02 03:11:38;;;;;;;31.20;5.70;;;9.70;99.90;;;;;;5048607;28;20072;-40
2022/10/02 03:14:25;;;;;;;23.17;4.75;;;9.50;99.90;;;;;;5048110;28;20045;-40
2022/10/02 03:17:12;;;;;;;33.13;5.53;;;9.50;99.90;;;;;;5048035;28;20055;-40
2022/10/02 03:20:05;;;;;;;33.83;6.03;;;9.50;99.90;;;;;;5047682;28;20063;-40
2022/10/02 03:22:54;;;;;;;24.98;5.07;;;9.50;99.90;;;;;;5047937;28;20048;-40
2022/10/02 03:25:23;;;;;;;33.85;6.78;;;9.50;99.90;;;;;;5047533;28;20174;-40
2022/10/02 03:28:21;;;;;;;30.58;5.03;;;9.60;99.90;;;;;;5047839;28;20128;-41
2022/10/02 03:30:47;;;;;;;21.90;4.25;;;9.80;99.90;;;;;;5038387;28;20088;-40
2022/10/02 03:33:15;;;;;;;27.45;5.25;;;9.60;99.90;;;;;;5047938;28;20464;-40
2022/10/02 03:35:42;;;;;;;24.08;5.18;;;10.00;99.90;;;;;;5048372;28;20148;-40
2022/10/02 03:38:11;;;;;;;25.35;5.78;;;10.10;99.90;;;;;;5048425;28;20098;-40
2022/10/02 03:40:37;;;;;;;23.98;6.03;;;10.20;99.90;;;;;;5048099;28;20130;-40
2022/10/02 03:43:03;;;;;;;27.88;5.93;;;10.20;99.90;;;;;;5047583;28;20044;-40
2022/10/02 03:45:29;;;;;;;27.02;6.05;;;10.10;99.90;;;;;;5047648;28;20044;-41
2022/10/02 03:47:54;;;;;;;37.33;5.47;;;10.40;99.90;;;;;;5047591;28;20043;-41
2022/10/02 03:50:20;;;;;;;28.92;5.88;;;10.50;99.90;;;;;;5047345;28;20068;-41
2022/10/02 03:52:52;;;;;;;28.73;6.22;;;10.20;99.90;;;;;;5047662;28;20092;-40
2022/10/02 03:55:36;;;;;;;34.15;6.47;;;10.30;99.90;;;;;;5047800;28;20045;-40
2022/10/02 03:58:10;;;;;;;14.65;4.68;;;10.10;99.90;;;;;;5047838;28;20049;-39
2022/10/02 04:00:54;;;;;;;29.45;5.50;;;10.20;99.90;;;;;;5047825;28;20045;-40
2022/10/02 04:03:28;;;;;;;32.55;6.20;;;11.10;99.90;;;;;;5047256;28;20033;-39
2022/10/02 04:06:06;;;;;;;20.77;5.25;;;10.40;99.90;;;;;;5047658;28;20071;-39
2022/10/02 04:08:39;;;;;;;21.10;4.28;;;10.10;99.90;;;;;;5046892;28;20604;-39
2022/10/02 04:11:15;;;;;;;27.30;6.70;;;10.20;99.90;;;;;;5046983;28;20075;-39
2022/10/02 04:13:49;;;;;;;26.40;4.88;;;10.00;99.90;;;;;;5046666;28;20124;-40
2022/10/02 04:16:30;;;;;;;27.52;4.90;;;10.00;99.90;;;;;;5047001;28;20049;-39
2022/10/02 04:19:04;;;;;;;17.83;3.97;;;10.00;99.90;;;;;;5047270;28;20048;-39
2022/10/02 04:21:50;;;;;;;28.30;5.72;;;10.00;99.90;;;;;;5047215;28;20041;-39
2022/10/02 04:24:47;;;;;;;23.50;4.13;;;10.20;99.90;;;;;;5038983;28;20406;-40
2022/10/02 04:27:39;;;;;;;19.73;4.32;;;9.90;99.90;;;;;;5046672;28;20044;-40
2022/10/02 04:30:18;;;;;;;19.45;3.90;;;9.90;99.90;;;;;;5046752;28;20509;-41
2022/10/02 04:32:44;;;;;;;20.75;3.97;;;9.80;99.90;;;;;;5045893;28;20041;-39
2022/10/02 04:35:14;;;;;;;29.20;6.32;;;9.70;99.90;;;;;;5046353;28;20037;-39
2022/10/02 04:37:53;;;;;;;28.08;3.88;;;9.70;99.90;;;;;;5047153;28;20462;-39
2022/10/02 04:40:49;;;;;;;21.95;3.75;;;9.70;99.90;;;;;;5046751;28;20486;-39
2022/10/02 04:43:40;;;;;;;20.70;4.32;;;9.60;99.90;;;;;;5046432;28;20487;-40
2022/10/02 04:46:50;;;;;;;14.32;3.05;;;9.90;99.90;;;;;;5046791;28;20077;-41
2022/10/02 04:49:37;;;;;;;31.88;5.22;;;9.50;99.90;;;;;;5003908;28;20400;-40
2022/10/02 04:52:26;;;;;;;25.08;4.32;;;9.50;99.90;;;;;;5046068;28;20049;-41
2022/10/02 04:55:06;;;;;;;17.08;3.35;;;9.50;99.90;;;;;;5046575;28;20048;-41
2022/10/02 04:57:43;;;;;;;17.27;3.40;;;9.50;99.90;;;;;;5046052;28;20064;-41
2022/10/02 05:00:19;;;;;;;34.55;4.43;;;9.40;99.90;;;;;;5046523;28;20057;-40
2022/10/02 05:03:23;;;;;;;35.63;3.97;;;9.60;99.90;;;;;;5046943;28;20075;-42
2022/10/02 05:06:00;;;;;;;23.50;4.10;;;9.30;99.90;;;;;;5046284;28;20131;-41
2022/10/02 05:08:57;;;;;;;22.70;3.70;;;9.50;99.90;;;;;;5046344;28;20036;-41
2022/10/02 05:11:45;;;;;;;28.95;4.43;;;9.30;99.90;;;;;;5045844;28;20391;-40
2022/10/02 05:14:22;;;;;;;19.60;4.47;;;9.20;99.90;;;;;;5046128;28;20064;-41
2022/10/02 05:17:05;;;;;;;17.42;4.40;;;9.10;99.90;;;;;;5046530;28;20467;-41
2022/10/02 05:19:50;;;;;;;22.55;3.67;;;9.10;99.90;;;;;;5045727;28;20517;-40
2022/10/02 05:22:40;;;;;;;21.50;3.70;;;9.20;99.90;;;;;;5044291;28;20095;-39
2022/10/02 05:25:12;;;;;;;19.42;4.30;;;9.10;99.90;;;;;;5046356;28;20123;-41
2022/10/02 05:27:52;;;;;;;19.77;3.90;;;9.10;99.90;;;;;;5045563;28;20475;-41
2022/10/02 05:30:18;;;;;;;19.48;4.18;;;9.00;99.90;;;;;;5045364;28;20120;-41
2022/10/02 05:33:15;;;;;;;19.58;3.70;;;9.70;99.90;;;;;;5045865;28;20040;-41
2022/10/02 05:36:12;;;;;;;19.17;3.63;;;8.90;99.90;;;;;;5045231;28;20045;-40
2022/10/02 05:38:57;;;;;;;23.83;3.90;;;8.90;99.90;;;;;;5045443;28;20436;-40
2022/10/02 05:42:01;;;;;;;18.98;3.65;;;8.90;99.90;;;;;;5045079;28;20516;-41
2022/10/02 05:44:38;;;;;;;19.33;3.40;;;8.80;99.90;;;;;;5002529;28;20064;-40
2022/10/02 05:47:16;;;;;;;16.20;3.53;;;9.00;99.90;;;;;;5039511;28;20057;-41
2022/10/02 05:49:59;;;;;;;26.25;3.28;;;9.60;99.90;;;;;;5045367;28;20045;-40
2022/10/02 05:52:34;;;;;;;21.10;3.30;;;8.80;99.90;;;;;;5045332;28;20037;-41
2022/10/02 05:55:19;;;;;;;25.30;4.25;;;9.10;99.90;;;;;;5045669;28;20117;-40
2022/10/02 05:57:53;;;;;;;20.00;3.60;;;8.80;99.90;;;;;;5045823;28;20049;-41
2022/10/02 06:00:42;;;;;;;23.42;3.83;;;9.10;99.90;;;;;;5045577;28;20052;-41
2022/10/02 06:03:32;;;;;;;21.23;3.78;;;9.30;99.90;;;;;;5045142;28;20533;-41
2022/10/02 06:06:09;;;;;;;14.02;2.40;;;8.90;99.90;;;;;;5045154;28;20118;-41
2022/10/02 06:08:41;;;;;;;18.27;2.42;;;9.20;99.90;;;;;;5045111;28;20052;-40
2022/10/02 06:11:14;;;;;;;22.70;3.90;;;9.80;99.90;;;;;;5045543;28;20075;-40
2022/10/02 06:13:42;;;;;;;;;;;9.20;99.90;;;;;;5045148;28;20051;-40
2022/10/02 06:16:31;;;;;;;21.15;3.08;;;9.20;99.90;;;;;;5045347;28;20011;-41
2022/10/02 06:19:04;;;;;;;21.48;3.78;;;9.00;99.90;;;;;;5045271;28;20164;-42
2022/10/02 06:21:50;;;;;;;20.80;3.72;;;9.50;99.90;;;;;;5045130;28;20056;-40
2022/10/02 06:24:26;;;;;;;25.15;4.43;;;9.10;99.90;;;;;;5045281;28;20045;-40
2022/10/02 06:27:02;;;;;;;16.70;3.30;;;9.10;99.90;;;;;;5044922;28;20550;-40
2022/10/02 06:29:37;;;;;;;22.05;2.83;;;9.80;99.90;;;;;;5045190;28;20091;-40
2022/10/02 06:32:27;;;;;;;21.48;4.85;;;9.60;99.90;;;;;;5044706;28;20037;-40
2022/10/02 06:34:53;;;;;;;14.25;2.88;;;9.40;99.90;;;;;;5044892;28;20051;-41
2022/10/02 06:37:43;;;;;;;14.95;2.95;;;9.60;99.90;;;;;;5045343;28;20041;-42
2022/10/02 06:40:11;;;;;;;32.13;4.15;;;9.80;99.90;;;;;;5044713;28;20517;-40
2022/10/02 06:42:51;;;;;;;23.00;3.50;;;10.00;99.90;;;;;;5045089;28;20053;-40
2022/10/02 06:45:42;;;;;;;26.80;5.60;;;9.70;99.90;;;;;;5044787;28;20123;-40
2022/10/02 06:48:30;;;;;;;21.23;3.90;;;9.60;99.90;;;;;;5045156;28;20047;-40
2022/10/02 06:51:31;;;;;;;19.67;3.65;;;9.70;99.90;;;;;;5044905;28;20048;-40
2022/10/02 06:54:23;;;;;;;27.13;4.15;;;9.70;99.90;;;;;;5037184;28;20059;-40
2022/10/02 06:57:13;;;;;;;22.02;3.92;;;9.80;99.90;;;;;;5047304;28;20060;-40
2022/10/02 07:00:00;;;;;;;25.35;4.47;;;9.80;99.90;;;;;;5048797;28;20056;-40
2022/10/02 07:02:58;;;;;;;20.92;3.83;;;10.20;99.90;;;;;;5048165;28;20052;-40
2022/10/02 07:05:42;;;;;;;25.50;5.07;;;10.20;99.90;;;;;;5040925;28;20380;-41
2022/10/02 07:08:58;;;;;;;17.25;3.53;;;10.60;99.90;;;;;;5048451;28;20073;-41
2022/10/02 07:11:42;;;;;;;27.80;4.60;;;10.90;99.90;;;;;;5048461;28;20040;-41
2022/10/02 07:14:29;;;;;;;19.00;3.85;;;11.30;99.90;;;;;;5046110;28;20092;-40
2022/10/02 07:17:12;;;;;;;32.65;4.75;;;11.30;99.90;;;;;;5048805;28;20099;-42
2022/10/02 07:19:46;;;;;;;23.90;5.05;;;11.30;99.90;;;;;;5048324;28;20379;-41
2022/10/02 07:22:36;;;;;;;23.08;4.50;;;11.50;99.90;;;;;;5048221;28;20045;-41
2022/10/02 07:25:20;;;;;;;29.58;4.88;;;11.80;99.90;;;;;;5048375;28;20126;-40
2022/10/02 07:27:50;;;;;;;34.65;5.93;;;11.80;99.90;;;;;;5047978;28;20099;-41
2022/10/02 07:30:17;;;;;;;22.02;4.95;;;11.90;99.90;;;;;;5047999;28;20115;-41
2022/10/02 07:32:47;;;;;;;26.98;5.03;;;12.20;99.90;;;;;;5047998;28;20036;-40
2022/10/02 07:35:43;;;;;;;25.67;4.88;;;12.00;99.90;;;;;;5047807;28;20045;-41
2022/10/02 07:38:49;;;;;;;34.33;4.50;;;12.00;99.90;;;;;;5048161;28;20045;-41
2022/10/02 07:41:37;;;;;;;23.40;3.90;;;12.00;99.90;;;;;;5047839;28;20534;-41
2022/10/02 07:44:36;;;;;;;22.27;3.85;;;12.20;99.90;;;;;;5048199;28;20398;-41
2022/10/02 07:47:11;;;;;;;21.77;4.90;;;12.30;99.90;;;;;;5048082;28;20080;-42
2022/10/02 07:50:02;;;;;;;28.17;4.93;;;12.50;99.90;;;;;;5047638;28;20136;-42
2022/10/02 07:52:42;;;;;;;27.60;5.55;;;12.50;99.90;;;;;;5047710;28;20037;-42
2022/10/02 07:55:19;;;;;;;23.70;3.63;;;12.50;99.90;;;;;;5047515;28;20041;-42
2022/10/02 07:58:08;;;;;;;24.13;4.30;;;12.50;99.90;;;;;;5047283;28;20153;-42
2022/10/02 08:00:44;;;;;;;23.63;4.57;;;12.50;99.90;;;;;;5048034;28;20123;-41
2022/10/02 08:03:28;;;;;;;22.08;3.60;;;12.60;99.90;;;;;;5047723;28;20708;-41
2022/10/02 08:05:55;;;;;;;22.98;4.22;;;12.40;99.90;;;;;;5047340;28;20048;-42
2022/10/02 08:08:58;;;;;;;19.33;2.90;;;12.50;99.90;;;;;;5046452;28;20048;-41
2022/10/02 08:11:50;;;;;;;21.75;3.22;;;12.90;99.90;;;;;;5047651;28;20036;-42
2022/10/02 08:14:28;;;;;;;19.33;4.10;;;13.00;99.90;;;;;;5047352;28;20057;-42
2022/10/02 08:17:01;;;;;;;14.55;3.55;;;13.10;99.90;;;;;;5047624;28;20275;-41
2022/10/02 08:19:44;;;;;;;12.40;2.42;;;13.40;99.90;;;;;;5047139;28;20517;-41
2022/10/02 08:22:32;;;;;;;17.75;3.42;;;13.60;99.90;;;;;;5047148;28;20049;-41
2022/10/02 08:25:04;;;;;;;14.07;3.42;;;14.30;99.90;;;;;;5046880;28;20123;-41
2022/10/02 08:28:06;;;;;;;12.63;3.17;;;14.00;99.90;;;;;;5047052;28;20417;-41
2022/10/02 08:30:32;;;;;;;14.10;2.45;;;13.90;99.90;;;;;;5047555;28;20454;-41
2022/10/02 08:32:58;;;;;;;15.52;3.17;;;14.20;99.90;;;;;;5046469;28;20041;-40
2022/10/02 08:35:45;;;;;;;18.73;2.75;;;14.00;99.90;;;;;;5046758;28;20044;-41
2022/10/02 08:38:40;;;;;;;16.83;3.75;;;14.50;99.90;;;;;;5047113;28;20048;-40
2022/10/02 08:41:25;;;;;;;14.48;3.05;;;14.90;99.90;;;;;;5047549;28;20040;-42
2022/10/02 08:44:48;;;;;;;22.67;2.97;;;15.30;99.90;;;;;;5046798;28;20045;-41
2022/10/02 08:47:13;;;;;;;;;;;15.30;99.90;;;;;;5005256;28;20046;-42
2022/10/02 08:50:00;;;;;;;13.00;2.15;;;15.10;99.90;;;;;;5004804;28;20408;-41
2022/10/02 08:53:04;;;;;;;11.73;2.22;;;15.10;99.90;;;;;;5030408;28;20113;-41
2022/10/02 08:55:49;;;;;;;14.07;2.63;;;15.20;99.90;;;;;;4996081;28;20560;-41
2022/10/02 08:58:51;;;;;;;17.02;2.58;;;15.30;99.90;;;;;;5045770;28;20477;-41
2022/10/02 09:01:33;;;;;;;13.65;2.97;;;15.30;99.90;;;;;;5046198;28;20053;-42
2022/10/02 09:04:09;;;;;;;;;;;15.80;99.90;;;;;;5047014;28;20052;-42
2022/10/02 09:07:10;;;;;;;10.75;1.83;;;15.80;99.90;;;;;;5045883;28;20371;-42
2022/10/02 09:10:07;;;;;;;16.50;2.80;;;15.40;99.90;;;;;;5029983;28;20045;-42
2022/10/02 09:12:48;;;;;;;9.10;1.67;;;15.80;99.90;;;;;;5046478;28;20053;-41
2022/10/02 09:15:17;;;;;;;11.70;1.98;;;15.80;99.90;;;;;;5045204;28;20138;-41
2022/10/02 09:17:46;;;;;;;6.53;1.13;;;15.80;99.90;;;;;;5046567;28;20138;-41
2022/10/02 09:20:40;;;;;;;10.90;1.60;;;15.90;99.90;;;;;;5046127;28;20123;-40
2022/10/02 09:23:28;;;;;;;6.57;1.52;;;16.00;99.90;;;;;;5045708;28;20041;-41
2022/10/02 09:26:17;;;;;;;9.30;1.10;;;16.10;99.90;;;;;;5045435;28;20040;-40
2022/10/02 09:29:15;;;;;;;3.58;0.75;;;16.00;99.90;;;;;;5045140;28;20052;-41
2022/10/02 09:32:26;;;;;;;11.65;1.33;;;15.90;99.90;;;;;;5045663;28;20107;-40
2022/10/02 09:35:00;;;;;;;8.90;1.13;;;15.80;99.90;;;;;;5035036;28;20136;-40
2022/10/02 09:37:59;;;;;;;6.72;0.80;;;15.80;99.90;;;;;;5045441;28;20045;-40
2022/10/02 09:40:35;;;;;;;7.40;0.88;;;15.70;99.90;;;;;;5045791;28;20091;-40
2022/10/02 09:43:01;;;;;;;8.25;0.98;;;15.70;99.90;;;;;;5045303;28;20491;-40
2022/10/02 09:46:05;;;;;;;5.75;1.23;;;15.60;99.90;;;;;;5046007;28;20135;-40
2022/10/02 09:49:08;;;;;;;8.45;0.80;;;15.70;99.90;;;;;;5046002;28;20076;-40
2022/10/02 09:51:55;;;;;;;8.40;1.60;;;15.70;99.90;;;;;;5046347;28;20037;-42
2022/10/02 09:54:42;;;;;;;7.55;1.65;;;15.70;99.90;;;;;;5044350;28;20053;-40
2022/10/02 09:57:38;;;;;;;7.10;0.90;;;15.80;99.90;;;;;;5044608;28;20075;-40
2022/10/02 10:00:26;;;;;;;9.30;1.00;;;15.90;99.90;;;;;;5042682;28;20044;-40
2022/10/02 10:03:30;;;;;;;9.20;0.93;;;15.90;99.90;;;;;;5044535;28;20409;-41
2022/10/02 10:06:24;;;;;;;5.53;0.75;;;16.30;99.90;;;;;;5044207;28;20125;-40
2022/10/02 10:09:22;;;;;;;11.50;1.38;;;16.40;99.90;;;;;;5044147;28;20510;-40
2022/10/02 10:12:11;;;;;;;10.65;1.35;;;16.40;99.90;;;;;;5043793;28;20044;-41
2022/10/02 10:14:55;;;;;;;11.30;1.10;;;16.30;99.90;;;;;;5038025;28;20565;-41
2022/10/02 10:17:33;;;;;;;9.45;1.05;;;16.10;99.90;;;;;;5044037;28;20053;-42
2022/10/02 10:20:36;;;;;;;8.80;2.03;;;16.00;99.90;;;;;;5043744;28;20057;-41
2022/10/02 10:23:30;;;;;;;7.97;0.88;;;15.90;99.90;;;;;;5037182;28;20398;-41
2022/10/02 10:26:26;;;;;;;10.30;1.20;;;16.00;99.90;;;;;;5043597;28;20045;-41
2022/10/02 10:29:14;;;;;;;9.10;1.20;;;15.90;99.90;;;;;;5043292;28;20041;-40
2022/10/02 10:32:07;;;;;;;8.02;0.77;;;15.90;99.90;;;;;;5044867;28;20573;-41
2022/10/02 10:34:44;;;;;;;7.20;1.23;;;15.70;99.90;;;;;;5047616;28;20045;-42
2022/10/02 10:40:14;;;;;;;11.25;1.60;;;15.70;99.90;;;;;;5047502;28;20099;-41
2022/10/02 10:43:14;;;;;;;10.45;1.30;;;15.60;99.90;;;;;;5048275;28;20398;-41
2022/10/02 10:45:57;;;;;;;12.18;2.00;;;15.60;99.90;;;;;;5048092;28;20045;-41
2022/10/02 10:48:48;;;;;;;16.42;1.38;;;15.70;99.90;;;;;;5047818;28;20040;-41
2022/10/02 10:51:35;;;;;;;11.20;1.35;;;15.70;99.90;;;;;;5047224;28;20116;-40
2022/10/02 10:54:09;;;;;;;14.30;2.38;;;15.80;99.90;;;;;;5047296;28;20087;-40
2022/10/02 10:57:12;;;;;;;17.88;1.42;;;15.90;99.90;;;;;;5047385;28;20142;-40
2022/10/02 10:59:56;;;;;;;;;;;16.00;99.90;;;;;;5041164;28;20406;-41
2022/10/02 11:02:43;;;;;;;18.92;1.90;;;15.90;99.90;;;;;;5047183;28;19960;-41
2022/10/02 11:05:46;;;;;;;14.30;1.83;;;15.90;99.90;;;;;;5046783;28;20655;-40
2022/10/02 11:08:36;;;;;;;13.00;1.05;;;15.80;99.90;;;;;;5046979;28;20056;-40
2022/10/02 11:11:14;;;;;;;12.70;2.25;;;15.90;99.90;;;;;;5046931;28;20056;-40
2022/10/02 11:14:01;;;;;;;8.57;0.80;;;16.00;99.90;;;;;;5047536;28;20037;-40
2022/10/02 11:16:54;;;;;;;12.52;2.33;;;16.10;99.90;;;;;;5025538;28;20458;-41
2022/10/02 11:19:44;;;;;;;11.65;1.40;;;16.30;99.90;;;;;;5046440;28;20120;-40
2022/10/02 11:22:13;;;;;;;7.15;1.42;;;16.70;99.90;;;;;;5046481;28;20487;-41
2022/10/02 11:24:59;;;;;;;9.68;1.33;;;16.90;99.90;;;;;;5046932;28;20045;-40
2022/10/02 11:27:50;;;;;;;8.32;0.90;;;16.90;99.90;;;;;;5041477;28;20103;-38
2022/10/02 11:30:24;;;;;;;15.38;2.03;;;16.90;99.90;;;;;;5040961;28;20094;-42
2022/10/02 11:33:07;;;;;;;8.98;1.33;;;16.90;99.90;;;;;;5042934;28;20072;-37
2022/10/02 11:36:04;;;;;;;11.10;1.60;;;16.90;99.90;;;;;;5043356;28;20056;-42
2022/10/02 11:38:54;;;;;;;14.45;2.33;;;16.80;99.90;;;;;;5044692;28;20498;-38
2022/10/02 11:41:52;;;;;;;11.68;2.40;;;16.90;99.90;;;;;;5044268;28;20041;-38
2022/10/02 11:44:52;;;;;;;10.75;2.55;;;16.70;99.90;;;;;;5043961;28;20150;-40
2022/10/02 11:47:45;;;;;;;16.55;1.73;;;16.60;99.90;;;;;;5045912;28;20491;-41
2022/10/02 11:50:49;;;;;;;10.38;1.40;;;17.00;99.90;;;;;;5034656;28;20061;-41
2022/10/02 11:53:24;;;;;;;13.20;1.50;;;16.80;99.90;;;;;;5003259;28;20387;-41
2022/10/02 11:56:15;;;;;;;16.02;3.67;;;16.80;99.90;;;;;;5040166;28;20053;-41
2022/10/02 11:58:52;;;;;;;14.23;3.13;;;16.90;99.90;;;;;;5046454;28;20425;-41
2022/10/02 12:01:44;;;;;;;13.13;3.47;;;17.00;99.90;;;;;;5046247;28;20047;-42
2022/10/02 12:04:21;;;;;;;29.23;4.17;;;16.90;99.90;;;;;;5045822;28;20392;-41
2022/10/02 12:07:08;;;;;;;14.07;1.77;;;16.90;99.90;;;;;;5045770;28;20482;-41
2022/10/02 12:09:44;;;;;;;14.40;1.30;;;16.80;99.90;;;;;;5045242;28;20041;-41
2022/10/02 12:12:15;;;;;;;6.07;0.95;;;16.70;99.90;;;;;;5045281;28;20391;-40
2022/10/02 12:14:54;;;;;;;11.18;1.42;;;16.30;99.90;;;;;;5045133;28;20398;-41
2022/10/02 12:17:22;;;;;;;8.77;1.10;;;16.30;99.90;;;;;;5045243;28;20052;-41
2022/10/02 12:28:38;;;;;;;10.15;1.42;;;15.60;99.90;;;;;;5044868;28;20064;-42
2022/10/02 12:31:04;;;;;;;13.55;1.73;;;15.40;99.90;;;;;;5045474;28;20045;-41
2022/10/02 12:33:45;;;;;;;6.80;1.42;;;15.50;99.90;;;;;;5044619;28;20457;-41
2022/10/02 12:36:55;;;;;;;10.57;1.65;;;15.70;99.90;;;;;;5044936;28;20052;-40
2022/10/02 12:39:20;;;;;;;9.93;1.15;;;15.50;99.90;;;;;;4996624;28;20053;-40
2022/10/02 12:41:58;;;;;;;9.25;0.82;;;15.60;99.90;;;;;;5045601;28;20072;-41
2022/10/02 12:44:44;;;;;;;8.85;0.70;;;15.80;99.90;;;;;;5045647;28;20048;-41
2022/10/02 12:47:37;;;;;;;10.02;1.05;;;16.10;99.90;;;;;;5045350;28;20049;-40
2022/10/02 12:50:28;;;;;;;;;;;16.30;99.90;;;;;;5045276;28;20041;-41
2022/10/02 12:53:19;;;;;;;8.90;0.98;;;16.60;99.90;;;;;;5043592;28;19927;-40
2022/10/02 12:56:12;;;;;;;9.07;1.38;;;16.80;99.90;;;;;;5045011;28;20041;-41
2022/10/02 12:59:15;;;;;;;7.35;1.02;;;16.90;99.90;;;;;;5045563;28;20045;-40
2022/10/02 13:02:05;;;;;;;11.63;1.20;;;16.90;99.90;;;;;;5043356;28;20049;-41
2022/10/02 13:05:02;;;;;;;11.57;1.55;;;16.80;99.90;;;;;;5044814;28;20624;-41
2022/10/02 13:07:48;;;;;;;7.70;0.95;;;16.80;99.90;;;;;;5044797;28;20135;-41
2022/10/02 13:10:20;;;;;;;9.45;0.98;;;16.50;99.90;;;;;;5044500;28;20537;-42
2022/10/02 13:13:05;;;;;;;;;;;16.30;99.90;;;;;;5044951;28;20104;-43
2022/10/02 13:16:23;;;;;;;8.10;1.00;;;16.10;99.90;;;;;;5044359;28;19924;-41
2022/10/02 13:19:16;;;;;;;7.30;0.88;;;15.90;99.90;;;;;;5001930;28;20066;-41
2022/10/02 13:21:47;;;;;;;10.02;1.05;;;15.70;99.90;;;;;;5043869;28;20096;-41
2022/10/02 13:24:31;;;;;;;6.53;0.80;;;15.80;99.90;;;;;;5044502;28;20095;-41
2022/10/02 13:27:09;;;;;;;7.40;0.88;;;15.50;99.90;;;;;;5045013;28;20049;-41
2022/10/02 13:29:56;;;;;;;10.85;1.10;;;15.50;99.90;;;;;;5044765;28;20127;-41
2022/10/02 13:33:04;;;;;;;14.52;1.27;;;15.50;99.90;;;;;;5044249;28;20099;-42
2022/10/02 13:35:55;;;;;;;10.68;1.23;;;15.60;99.90;;;;;;5043436;28;20390;-40
2022/10/02 13:38:27;;;;;;;12.00;0.90;;;15.50;99.90;;;;;;5043918;28;20041;-41
2022/10/02 13:41:30;;;;;;;5.65;0.98;;;15.90;99.90;;;;;;5044254;28;20056;-41
2022/10/02 13:44:14;;;;;;;6.80;0.95;;;16.10;99.90;;;;;;5044777;28;20060;-41
2022/10/02 13:46:53;;;;;;;9.38;0.80;;;16.40;99.90;;;;;;5044458;28;20403;-41
2022/10/02 13:49:43;;;;;;;13.43;1.85;;;16.00;99.90;;;;;;5044413;28;20056;-41
2022/10/02 13:52:23;;;;;;;8.93;0.88;;;15.80;99.90;;;;;;5044775;28;20045;-41
2022/10/02 13:55:07;;;;;;;5.82;0.68;;;15.60;99.90;;;;;;5044871;28;20041;-41
2022/10/02 13:57:55;;;;;;;9.40;0.88;;;15.50;99.90;;;;;;5044214;28;20045;-43
2022/10/02 14:00:24;;;;;;;10.00;1.23;;;15.30;99.90;;;;;;5024504;28;20444;-40
2022/10/02 14:03:01;;;;;;;9.23;1.15;;;15.20;99.90;;;;;;5044228;28;20530;-40
2022/10/02 14:05:42;;;;;;;9.73;1.20;;;15.20;99.90;;;;;;5044859;28;20494;-40
2022/10/02 14:08:27;;;;;;;6.77;0.83;;;15.30;99.90;;;;;;5048302;28;20049;-40
2022/10/02 14:11:01;;;;;;;12.48;1.15;;;14.90;99.90;;;;;;5048205;28;20044;-40
2022/10/02 14:13:45;;;;;;;15.27;1.42;;;14.90;99.90;;;;;;5047836;28;20072;-40
2022/10/02 14:16:56;;;;;;;8.85;1.30;;;14.90;99.90;;;;;;5048186;28;20088;-40